Time;durP1;ratioP1;P1;durP2;ratioP2;P2;SDS_P1;SDS_P2;PMS_P1;PMS_P2;Temp;Humidity;BMP_temperature;BMP_pressure;BME280_temperature;BME280_humidity;BME280_pressure;Samples;Min_cycle;Max_cycle;Signal;HPM_P1;HPM_P2
2022/10/27 00:02:06;;;;;;;17.70;5.27;;;14.10;99.90;;;;;;5075247;28;20025;-70
2022/10/27 00:04:31;;;;;;;13.05;4.65;;;14.00;99.90;;;;;;5073514;28;20032;-70
2022/10/27 00:06:57;;;;;;;11.23;4.80;;;14.00;99.90;;;;;;5073314;28;20022;-70
2022/10/27 00:09:23;;;;;;;12.73;4.87;;;14.10;99.90;;;;;;5073347;28;20024;-70
2022/10/27 00:11:48;;;;;;;13.10;6.10;;;14.10;99.90;;;;;;5074644;28;20029;-70
2022/10/27 00:14:14;;;;;;;10.63;4.60;;;14.30;99.90;;;;;;5074323;28;20251;-70
2022/10/27 00:16:40;;;;;;;11.90;4.47;;;14.30;99.90;;;;;;5075718;28;20032;-70
2022/10/27 00:19:05;;;;;;;11.43;4.88;;;14.40;99.90;;;;;;5076588;28;20297;-71
2022/10/27 00:21:31;;;;;;;10.43;4.83;;;14.40;99.90;;;;;;5074898;28;20043;-71
2022/10/27 00:23:56;;;;;;;8.67;4.30;;;14.30;99.90;;;;;;5072996;28;20025;-70
2022/10/27 00:26:22;;;;;;;15.73;4.03;;;14.30;99.90;;;;;;5073570;28;20029;-71
2022/10/27 00:28:47;;;;;;;13.50;4.83;;;14.20;99.90;;;;;;5074233;28;20108;-70
2022/10/27 00:31:16;;;;;;;9.73;4.38;;;14.10;99.90;;;;;;5073685;28;20056;-70
2022/10/27 00:33:43;;;;;;;12.98;4.35;;;14.10;99.90;;;;;;5072624;28;20115;-70
2022/10/27 00:36:11;;;;;;;14.93;4.30;;;14.00;99.90;;;;;;5073230;28;20359;-70
2022/10/27 00:38:37;;;;;;;14.55;4.32;;;14.10;99.90;;;;;;5074372;28;20016;-70
2022/10/27 00:41:03;;;;;;;12.90;3.83;;;14.10;99.90;;;;;;5074043;28;20496;-70
2022/10/27 00:43:32;;;;;;;10.98;4.35;;;14.00;99.90;;;;;;5085477;28;20127;-70
2022/10/27 00:46:06;;;;;;;9.98;4.07;;;13.90;99.90;;;;;;5092849;28;20028;-70
2022/10/27 00:48:32;;;;;;;12.48;4.63;;;13.80;99.90;;;;;;5093198;28;20024;-70
2022/10/27 00:50:59;;;;;;;;;;;13.70;99.90;;;;;;5094601;28;20020;-70
2022/10/27 00:53:25;;;;;;;8.00;4.33;;;13.70;99.90;;;;;;5093215;28;20289;-71
2022/10/27 00:55:51;;;;;;;14.98;4.78;;;13.60;99.90;;;;;;5096943;28;20274;-70
2022/10/27 00:58:18;;;;;;;12.30;4.03;;;13.60;99.90;;;;;;5106283;28;20035;-71
2022/10/27 01:00:44;;;;;;;10.95;4.30;;;13.50;99.90;;;;;;5103402;28;20095;-70
2022/10/27 01:03:13;;;;;;;11.82;4.43;;;13.50;99.90;;;;;;5094171;28;20063;-69
2022/10/27 01:05:40;;;;;;;7.60;4.03;;;13.50;99.90;;;;;;5093703;28;20036;-69
2022/10/27 01:08:06;;;;;;;12.10;4.30;;;13.60;99.90;;;;;;5093666;28;20027;-69
2022/10/27 01:10:32;;;;;;;12.65;4.50;;;13.60;99.90;;;;;;5093622;28;20020;-70
2022/10/27 01:12:59;;;;;;;12.45;4.50;;;13.60;99.90;;;;;;5085009;28;20028;-70
2022/10/27 01:15:34;;;;;;;15.45;4.88;;;13.70;99.90;;;;;;5072971;28;20044;-70
2022/10/27 01:18:06;;;;;;;9.93;3.70;;;13.60;99.90;;;;;;5073513;28;20021;-69
2022/10/27 01:20:46;;;;;;;11.68;3.90;;;13.60;99.90;;;;;;5073561;28;20021;-70
2022/10/27 01:23:24;;;;;;;12.18;4.15;;;13.60;99.90;;;;;;5073200;28;20044;-69
2022/10/27 01:26:08;;;;;;;14.25;4.35;;;13.50;99.90;;;;;;5073123;28;20031;-69
2022/10/27 01:28:57;;;;;;;11.10;4.63;;;13.50;99.90;;;;;;5073298;28;20135;-69
2022/10/27 01:31:29;;;;;;;11.65;4.10;;;13.40;99.90;;;;;;5072838;28;20477;-70
2022/10/27 01:33:54;;;;;;;9.88;4.03;;;13.30;99.90;;;;;;5072955;28;20082;-69
2022/10/27 01:36:25;;;;;;;10.13;4.13;;;13.20;99.90;;;;;;5071734;28;20462;-70
2022/10/27 01:39:04;;;;;;;19.00;4.43;;;13.20;99.90;;;;;;5071625;28;20020;-69
2022/10/27 01:41:35;;;;;;;9.02;3.47;;;13.30;99.90;;;;;;5073245;28;20027;-70
2022/10/27 01:44:11;;;;;;;12.60;4.40;;;13.40;99.90;;;;;;5071433;28;20043;-69
2022/10/27 01:46:37;;;;;;;13.15;4.00;;;13.40;99.90;;;;;;5072739;28;20482;-69
2022/10/27 01:49:04;;;;;;;11.70;4.18;;;13.30;99.90;;;;;;5072827;28;20032;-70
2022/10/27 01:51:30;;;;;;;10.65;4.18;;;13.20;99.90;;;;;;5072774;28;20095;-70
2022/10/27 01:53:56;;;;;;;8.67;3.67;;;13.30;99.90;;;;;;5071596;28;20123;-70
2022/10/27 01:56:55;;;;;;;9.98;4.07;;;13.30;99.90;;;;;;5072744;28;20108;-70
2022/10/27 01:59:42;;;;;;;8.27;3.55;;;13.20;99.90;;;;;;5072497;28;20078;-70
2022/10/27 02:02:34;;;;;;;10.15;4.10;;;13.20;99.90;;;;;;5072896;28;20048;-70
2022/10/27 02:05:18;;;;;;;6.70;3.92;;;13.10;99.90;;;;;;5072601;28;20039;-70
2022/10/27 02:08:24;;;;;;;7.22;3.75;;;13.20;99.90;;;;;;5072859;28;20442;-70
2022/10/27 02:11:02;;;;;;;12.93;4.20;;;13.30;99.90;;;;;;5062365;28;20051;-70
2022/10/27 02:13:30;;;;;;;10.77;4.53;;;13.30;99.90;;;;;;5072640;28;20353;-70
2022/10/27 02:16:00;;;;;;;18.55;4.72;;;13.30;99.90;;;;;;5072658;28;20035;-70
2022/10/27 02:18:35;;;;;;;11.82;3.95;;;13.30;99.90;;;;;;5071421;28;20092;-70
2022/10/27 02:21:05;;;;;;;11.98;4.00;;;13.20;99.90;;;;;;5071178;28;20028;-70
2022/10/27 02:23:31;;;;;;;11.88;4.40;;;13.30;99.90;;;;;;5072446;28;20029;-70
2022/10/27 02:26:15;;;;;;;12.05;4.28;;;13.10;99.90;;;;;;5072489;28;20040;-70
2022/10/27 02:28:50;;;;;;;7.25;4.20;;;13.10;99.90;;;;;;5071829;28;20339;-70
2022/10/27 02:31:18;;;;;;;12.13;4.50;;;13.10;99.90;;;;;;5070913;28;20025;-70
2022/10/27 02:33:43;;;;;;;12.23;4.32;;;12.90;99.90;;;;;;5072116;28;20032;-70
2022/10/27 02:36:09;;;;;;;11.85;4.07;;;12.90;99.90;;;;;;5072279;28;20032;-70
2022/10/27 02:38:34;;;;;;;11.47;4.17;;;12.80;99.90;;;;;;5071171;28;20066;-69
2022/10/27 02:41:00;;;;;;;13.37;3.83;;;12.80;99.90;;;;;;5070925;28;20013;-69
2022/10/27 02:43:25;;;;;;;12.90;5.00;;;12.70;99.90;;;;;;5070798;28;20020;-69
2022/10/27 02:45:52;;;;;;;8.87;4.07;;;12.80;99.90;;;;;;5072049;28;20024;-70
2022/10/27 02:48:17;;;;;;;10.40;4.05;;;12.90;99.90;;;;;;5072281;28;20083;-70
2022/10/27 02:50:43;;;;;;;14.93;4.13;;;13.00;99.90;;;;;;5072273;28;20025;-70
2022/10/27 02:53:08;;;;;;;9.83;4.37;;;13.00;99.90;;;;;;5070983;28;20069;-70
2022/10/27 02:55:34;;;;;;;9.40;4.20;;;13.00;99.90;;;;;;5073797;28;20031;-70
2022/10/27 02:57:59;;;;;;;12.03;4.00;;;13.10;99.90;;;;;;5075865;28;20496;-70
2022/10/27 03:00:25;;;;;;;6.30;3.87;;;13.20;99.90;;;;;;5075783;28;20020;-70
2022/10/27 03:02:50;;;;;;;13.10;4.03;;;13.30;99.90;;;;;;5075915;28;20095;-70
2022/10/27 03:05:16;;;;;;;10.07;3.77;;;13.20;99.90;;;;;;5074952;28;20409;-70
2022/10/27 03:07:43;;;;;;;8.13;4.03;;;13.20;99.90;;;;;;5075846;28;20036;-70
2022/10/27 03:10:08;;;;;;;8.18;3.72;;;13.20;99.90;;;;;;5074314;28;20029;-71
2022/10/27 03:12:34;;;;;;;13.03;4.47;;;13.10;99.90;;;;;;5075621;28;20028;-70
2022/10/27 03:14:59;;;;;;;9.67;4.60;;;13.10;99.90;;;;;;5075413;28;20024;-70
2022/10/27 03:17:25;;;;;;;11.60;4.53;;;13.00;99.90;;;;;;5075801;28;20032;-71
2022/10/27 03:19:50;;;;;;;10.50;3.87;;;13.00;99.90;;;;;;5075653;28;20028;-69
2022/10/27 03:22:16;;;;;;;10.17;4.33;;;12.90;99.90;;;;;;5075530;28;20047;-70
2022/10/27 03:24:41;;;;;;;10.60;4.10;;;12.90;99.90;;;;;;5074053;28;20021;-70
2022/10/27 03:27:07;;;;;;;10.80;3.93;;;12.80;99.90;;;;;;5074122;28;20025;-70
2022/10/27 03:29:32;;;;;;;11.70;4.60;;;12.70;99.90;;;;;;5083154;28;20029;-70
2022/10/27 03:31:58;;;;;;;9.63;4.20;;;12.80;99.90;;;;;;5079670;28;20024;-71
2022/10/27 03:34:23;;;;;;;10.77;4.07;;;12.90;99.90;;;;;;5073829;28;20366;-71
2022/10/27 03:36:49;;;;;;;8.03;4.10;;;13.00;99.90;;;;;;5073824;28;20111;-70
2022/10/27 03:39:14;;;;;;;9.80;4.30;;;12.90;99.90;;;;;;5073622;28;20527;-70
2022/10/27 03:41:40;;;;;;;12.30;3.97;;;12.80;99.90;;;;;;5075700;28;20024;-70
2022/10/27 03:44:06;;;;;;;11.47;4.13;;;12.80;99.90;;;;;;5075160;28;20021;-70
2022/10/27 03:46:31;;;;;;;10.23;3.93;;;12.80;99.90;;;;;;5073804;28;20031;-70
2022/10/27 03:48:57;;;;;;;10.00;4.53;;;12.60;99.90;;;;;;5074617;28;20393;-70
2022/10/27 03:51:22;;;;;;;8.87;4.10;;;12.50;99.90;;;;;;5075853;28;20052;-70
2022/10/27 03:53:48;;;;;;;12.47;4.27;;;12.60;99.90;;;;;;5075327;28;20107;-70
2022/10/27 03:56:13;;;;;;;12.37;4.23;;;12.70;99.90;;;;;;5075617;28;20036;-71
2022/10/27 03:58:39;;;;;;;10.53;4.50;;;12.70;99.90;;;;;;5074896;28;20028;-70
2022/10/27 04:01:05;;;;;;;14.47;4.20;;;12.80;99.90;;;;;;5074299;28;20528;-71
2022/10/27 04:03:31;;;;;;;10.77;4.20;;;12.90;99.90;;;;;;5077310;28;20258;-71
2022/10/27 04:05:57;;;;;;;9.05;4.40;;;12.80;99.90;;;;;;5075493;28;20035;-71
2022/10/27 04:08:22;;;;;;;14.90;4.23;;;12.80;99.90;;;;;;5075004;28;20025;-70
2022/10/27 04:10:48;;;;;;;11.23;4.50;;;12.90;99.90;;;;;;5075491;28;20028;-70
2022/10/27 04:13:13;;;;;;;8.07;4.43;;;12.80;99.90;;;;;;5075040;28;20305;-70
2022/10/27 04:15:39;;;;;;;17.53;5.07;;;12.70;99.90;;;;;;5072895;28;20032;-70
2022/10/27 04:18:05;;;;;;;12.03;4.07;;;12.80;99.90;;;;;;5073355;28;20123;-71
2022/10/27 04:20:30;;;;;;;12.45;4.68;;;12.80;99.90;;;;;;5073124;28;20392;-70
2022/10/27 04:22:57;;;;;;;14.17;4.43;;;12.80;99.90;;;;;;5074704;28;20046;-70
2022/10/27 04:25:23;;;;;;;12.02;4.07;;;12.80;99.90;;;;;;5074265;28;20662;-70
2022/10/27 04:27:49;;;;;;;12.57;4.47;;;12.90;99.90;;;;;;5074524;28;20025;-70
2022/10/27 04:30:14;;;;;;;8.80;3.87;;;12.80;99.90;;;;;;5074026;28;20040;-71
2022/10/27 04:32:40;;;;;;;11.13;3.83;;;12.80;99.90;;;;;;5073034;28;20032;-71
2022/10/27 04:35:06;;;;;;;10.27;3.93;;;12.80;99.90;;;;;;5072866;28;20477;-71
2022/10/27 04:37:33;;;;;;;7.85;4.28;;;12.80;99.90;;;;;;5072883;28;20028;-71
2022/10/27 04:39:59;;;;;;;13.50;4.60;;;12.80;99.90;;;;;;5072801;28;20031;-71
2022/10/27 04:42:24;;;;;;;9.85;4.15;;;12.70;99.90;;;;;;5083201;28;20058;-71
2022/10/27 04:44:50;;;;;;;9.77;4.77;;;12.60;99.90;;;;;;5093122;28;20024;-71
2022/10/27 04:47:15;;;;;;;9.80;4.47;;;12.50;99.90;;;;;;5092690;28;20024;-71
2022/10/27 04:49:41;;;;;;;9.10;4.20;;;12.60;99.90;;;;;;5094558;28;20085;-71
2022/10/27 04:52:06;;;;;;;12.47;4.73;;;12.50;99.90;;;;;;5094611;28;20102;-71
2022/10/27 04:54:32;;;;;;;9.87;4.63;;;12.50;99.90;;;;;;5093294;28;20115;-71
2022/10/27 04:56:57;;;;;;;13.13;4.33;;;12.60;99.90;;;;;;5092581;28;20020;-71
2022/10/27 04:59:23;;;;;;;16.23;4.60;;;12.60;99.90;;;;;;5092713;28;20012;-71
2022/10/27 05:01:48;;;;;;;11.83;5.00;;;12.60;99.90;;;;;;5092999;28;20024;-71
2022/10/27 05:04:14;;;;;;;7.53;4.70;;;12.70;99.90;;;;;;5095157;28;20028;-71
2022/10/27 05:06:39;;;;;;;14.27;5.60;;;12.60;99.90;;;;;;5094729;28;20039;-71
2022/10/27 05:09:05;;;;;;;10.20;4.63;;;12.60;99.90;;;;;;5094875;28;20043;-70
2022/10/27 05:11:30;;;;;;;10.67;5.50;;;12.60;99.90;;;;;;5094888;28;20016;-70
2022/10/27 05:13:56;;;;;;;12.73;4.57;;;12.60;99.90;;;;;;5076751;28;20060;-70
2022/10/27 05:16:22;;;;;;;12.40;4.57;;;12.60;99.90;;;;;;5075119;28;20078;-71
2022/10/27 05:18:47;;;;;;;12.87;4.53;;;12.50;99.90;;;;;;5073628;28;20039;-70
2022/10/27 05:21:13;;;;;;;10.83;4.67;;;12.30;99.90;;;;;;5073997;28;20731;-71
2022/10/27 05:23:39;;;;;;;12.07;4.65;;;12.40;99.90;;;;;;5073589;28;20097;-70
2022/10/27 05:26:05;;;;;;;11.00;4.68;;;12.50;99.90;;;;;;5073574;28;20031;-70
2022/10/27 05:28:30;;;;;;;9.15;4.07;;;12.50;99.90;;;;;;5073460;28;20113;-70
2022/10/27 05:30:57;;;;;;;7.70;4.43;;;12.60;99.90;;;;;;5070303;28;20115;-71
2022/10/27 05:33:23;;;;;;;12.40;4.63;;;12.50;99.90;;;;;;5070824;28;20025;-70
2022/10/27 05:35:49;;;;;;;11.38;4.07;;;12.50;99.90;;;;;;5071288;28;20040;-71
2022/10/27 05:38:16;;;;;;;10.65;4.63;;;12.60;99.90;;;;;;5073435;28;20047;-71
2022/10/27 05:40:42;;;;;;;13.40;4.20;;;12.50;99.90;;;;;;5071656;28;20028;-70
2022/10/27 05:43:08;;;;;;;10.50;4.80;;;12.50;99.90;;;;;;5073263;28;20021;-68
2022/10/27 05:45:34;;;;;;;13.68;5.93;;;12.40;99.90;;;;;;5072691;28;20024;-68
2022/10/27 05:48:03;;;;;;;16.48;5.10;;;12.30;99.90;;;;;;5072945;28;20068;-69
2022/10/27 05:50:30;;;;;;;12.45;5.40;;;12.30;99.90;;;;;;5073096;28;20035;-70
2022/10/27 05:52:56;;;;;;;9.48;5.63;;;12.50;99.90;;;;;;5073108;28;20052;-69
2022/10/27 05:55:23;;;;;;;8.65;5.05;;;12.40;99.90;;;;;;5073177;28;20031;-69
2022/10/27 05:58:05;;;;;;;13.88;5.50;;;12.40;99.90;;;;;;5073143;28;20031;-69
2022/10/27 06:00:34;;;;;;;13.30;5.03;;;12.40;99.90;;;;;;5072644;28;20028;-68
2022/10/27 06:03:01;;;;;;;20.80;5.70;;;12.50;99.90;;;;;;5073058;28;20060;-68
2022/10/27 06:05:28;;;;;;;15.02;5.50;;;12.50;99.90;;;;;;5073219;28;20047;-69
2022/10/27 06:07:54;;;;;;;16.23;5.70;;;12.50;99.90;;;;;;5071447;28;20097;-67
2022/10/27 06:10:19;;;;;;;13.32;5.20;;;12.50;99.90;;;;;;5072893;28;20525;-67
2022/10/27 06:12:45;;;;;;;12.60;5.80;;;12.50;99.90;;;;;;5073130;28;20039;-67
2022/10/27 06:15:11;;;;;;;9.33;5.53;;;12.50;99.90;;;;;;5072682;28;20393;-68
2022/10/27 06:17:36;;;;;;;15.63;5.43;;;12.50;99.90;;;;;;5072874;28;20367;-66
2022/10/27 06:20:03;;;;;;;13.27;6.27;;;12.50;99.90;;;;;;5072736;28;20029;-67
2022/10/27 06:22:29;;;;;;;13.80;5.72;;;12.50;99.90;;;;;;5073150;28;20812;-67
2022/10/27 06:24:55;;;;;;;11.88;6.05;;;12.40;99.90;;;;;;5078140;28;20043;-67
2022/10/27 06:27:20;;;;;;;12.07;5.77;;;12.20;99.90;;;;;;5071870;28;20127;-67
2022/10/27 06:29:46;;;;;;;11.75;5.40;;;12.10;99.90;;;;;;5075867;28;20029;-67
2022/10/27 06:32:11;;;;;;;15.10;4.80;;;12.00;99.90;;;;;;5076164;28;20047;-68
2022/10/27 06:34:37;;;;;;;12.43;5.07;;;12.00;99.90;;;;;;5076524;28;20028;-68
2022/10/27 06:37:04;;;;;;;17.97;5.37;;;12.00;99.90;;;;;;5076257;28;20036;-68
2022/10/27 06:39:30;;;;;;;9.95;5.20;;;12.00;99.90;;;;;;5076253;28;20266;-69
2022/10/27 06:41:56;;;;;;;22.85;8.38;;;12.00;99.90;;;;;;5076156;28;20385;-66
2022/10/27 06:44:23;;;;;;;12.15;4.47;;;12.00;99.90;;;;;;5076657;28;20489;-67
2022/10/27 06:46:48;;;;;;;11.93;4.60;;;12.00;99.90;;;;;;5075929;28;20043;-67
2022/10/27 06:49:14;;;;;;;20.70;4.77;;;12.10;99.90;;;;;;5076014;28;20382;-67
2022/10/27 06:51:39;;;;;;;12.10;3.73;;;12.10;99.90;;;;;;5076495;28;20025;-67
2022/10/27 06:54:05;;;;;;;7.93;3.63;;;12.10;99.90;;;;;;5074851;28;20480;-69
2022/10/27 06:56:31;;;;;;;7.37;3.70;;;12.10;99.90;;;;;;5074659;28;20029;-71
2022/10/27 06:58:57;;;;;;;10.90;3.67;;;12.00;99.90;;;;;;5076255;28;20029;-70
2022/10/27 07:01:23;;;;;;;9.80;4.53;;;11.90;99.90;;;;;;5077147;28;20062;-69
2022/10/27 07:03:50;;;;;;;9.20;5.03;;;11.80;99.90;;;;;;5076384;28;20052;-68
2022/10/27 07:06:15;;;;;;;8.48;3.70;;;11.90;99.90;;;;;;5077177;28;20493;-69
2022/10/27 07:08:41;;;;;;;5.93;3.90;;;11.90;99.90;;;;;;5075752;28;20040;-67
2022/10/27 07:11:06;;;;;;;9.63;4.30;;;11.90;99.90;;;;;;5076685;28;20396;-67
2022/10/27 07:13:32;;;;;;;7.80;4.37;;;11.90;99.90;;;;;;5076781;28;20043;-68
2022/10/27 07:15:57;;;;;;;7.30;5.17;;;11.80;99.90;;;;;;5076945;28;20282;-67
2022/10/27 07:18:23;;;;;;;15.17;5.33;;;11.90;99.90;;;;;;5077481;28;20070;-66
2022/10/27 07:20:50;;;;;;;7.00;4.70;;;11.70;99.90;;;;;;5076345;28;20032;-66
2022/10/27 07:23:15;;;;;;;7.82;4.70;;;11.70;99.90;;;;;;5077136;28;20107;-65
2022/10/27 07:25:41;;;;;;;7.47;4.32;;;11.90;99.90;;;;;;5076725;28;20480;-66
2022/10/27 07:28:06;;;;;;;8.50;3.90;;;12.00;99.90;;;;;;5075900;28;20051;-66
2022/10/27 07:30:36;;;;;;;4.80;3.50;;;12.10;99.90;;;;;;5075495;28;20035;-66
2022/10/27 07:33:02;;;;;;;4.13;3.20;;;12.10;99.90;;;;;;5075807;28;20072;-66
2022/10/27 07:35:28;;;;;;;3.95;2.85;;;12.30;99.90;;;;;;5075268;28;20028;-65
2022/10/27 07:37:53;;;;;;;4.65;3.60;;;12.30;99.90;;;;;;5075462;28;20048;-65
2022/10/27 07:40:21;;;;;;;5.50;3.40;;;12.30;99.90;;;;;;5074621;28;20047;-66
2022/10/27 07:42:49;;;;;;;4.53;3.55;;;12.30;99.90;;;;;;5075647;28;20467;-66
2022/10/27 07:45:16;;;;;;;7.13;3.40;;;12.40;99.90;;;;;;5075253;28;20027;-66
2022/10/27 07:47:46;;;;;;;5.80;4.15;;;12.40;99.90;;;;;;5074672;28;20059;-66
2022/10/27 07:50:12;;;;;;;7.95;4.18;;;12.40;99.90;;;;;;5075045;28;20461;-67
2022/10/27 07:52:46;;;;;;;7.28;4.50;;;12.70;99.90;;;;;;5074982;28;20020;-67
2022/10/27 07:55:13;;;;;;;9.45;4.47;;;12.80;99.90;;;;;;5075206;28;20032;-65
2022/10/27 07:57:40;;;;;;;8.75;4.03;;;12.90;99.90;;;;;;5073336;28;20024;-66
2022/10/27 08:00:06;;;;;;;;;;;12.70;99.90;;;;;;5075688;28;20028;-65
2022/10/27 08:02:32;;;;;;;13.93;5.40;;;12.70;99.90;;;;;;5074747;28;19905;-66
2022/10/27 08:04:57;;;;;;;12.97;5.80;;;12.50;99.90;;;;;;5074893;28;20043;-65
2022/10/27 08:07:23;;;;;;;13.77;5.60;;;12.40;99.90;;;;;;5074785;28;20056;-65
2022/10/27 08:09:49;;;;;;;10.67;5.57;;;12.50;99.90;;;;;;5081017;28;20040;-67
2022/10/27 08:12:14;;;;;;;10.25;5.57;;;12.90;99.90;;;;;;5091273;28;20028;-67
2022/10/27 08:14:40;;;;;;;13.52;6.00;;;13.30;99.90;;;;;;5074655;28;20035;-66
2022/10/27 08:17:05;;;;;;;14.57;6.63;;;13.40;99.90;;;;;;5074173;28;20420;-65
2022/10/27 08:19:31;;;;;;;10.37;5.77;;;13.50;99.90;;;;;;5073164;28;20020;-66
2022/10/27 08:21:56;;;;;;;22.33;6.20;;;13.50;99.90;;;;;;5074612;28;20477;-66
2022/10/27 08:24:22;;;;;;;13.77;7.30;;;13.10;99.90;;;;;;5074546;28;20018;-66
2022/10/27 08:26:48;;;;;;;18.67;6.70;;;13.30;99.90;;;;;;5073138;28;20032;-66
2022/10/27 08:29:13;;;;;;;25.60;6.43;;;13.50;99.90;;;;;;5074272;28;20087;-66
2022/10/27 08:31:39;;;;;;;16.43;6.50;;;13.60;99.90;;;;;;5074283;28;20111;-66
2022/10/27 08:34:04;;;;;;;13.67;6.47;;;13.70;99.90;;;;;;5089446;28;20032;-66
2022/10/27 08:36:31;;;;;;;13.93;6.67;;;13.40;99.90;;;;;;5094614;28;20473;-67
2022/10/27 08:38:57;;;;;;;17.83;7.55;;;13.40;99.90;;;;;;5100108;28;20266;-66
2022/10/27 08:41:29;;;;;;;15.37;6.30;;;13.10;99.90;;;;;;5099923;28;20020;-66
2022/10/27 08:43:58;;;;;;;18.80;7.57;;;13.30;99.90;;;;;;5094573;28;20012;-66
2022/10/27 08:46:42;;;;;;;12.82;6.97;;;13.60;99.90;;;;;;5091383;28;20024;-66
2022/10/27 08:49:28;;;;;;;14.38;7.05;;;13.70;99.90;;;;;;5072221;28;20025;-65
2022/10/27 08:52:00;;;;;;;15.05;7.07;;;13.60;99.90;;;;;;5071872;28;20478;-66
2022/10/27 08:54:26;;;;;;;12.55;7.00;;;13.50;99.90;;;;;;5073812;28;20021;-66
2022/10/27 08:56:53;;;;;;;;;;;13.40;99.90;;;;;;5074060;28;20024;-65
2022/10/27 08:59:22;;;;;;;28.15;7.32;;;13.50;99.90;;;;;;5073816;28;19959;-66
2022/10/27 09:02:00;;;;;;;13.30;7.00;;;13.80;99.90;;;;;;5073677;28;20028;-65
2022/10/27 09:04:38;;;;;;;9.52;6.50;;;13.90;99.90;;;;;;5073726;28;20465;-65
2022/10/27 09:07:21;;;;;;;10.10;6.60;;;14.40;99.90;;;;;;5074258;28;20422;-66
2022/10/27 09:09:58;;;;;;;11.68;7.10;;;14.60;99.90;;;;;;5073862;28;20024;-66
2022/10/27 09:12:58;;;;;;;12.20;6.70;;;14.80;99.90;;;;;;5073739;28;20107;-66
2022/10/27 09:15:37;;;;;;;12.50;7.45;;;14.90;99.90;;;;;;5073894;28;20093;-66
2022/10/27 09:18:35;;;;;;;12.57;7.80;;;14.50;99.90;;;;;;5073947;28;20024;-66
2022/10/27 09:21:23;;;;;;;11.07;6.97;;;14.60;99.90;;;;;;5074053;28;20088;-66
2022/10/27 09:23:56;;;;;;;8.98;7.15;;;14.60;99.90;;;;;;5072884;28;20036;-65
2022/10/27 09:26:29;;;;;;;12.77;7.50;;;14.60;99.90;;;;;;5073274;28;20035;-65
2022/10/27 09:28:56;;;;;;;15.50;9.13;;;14.30;99.90;;;;;;5073661;28;20025;-65
2022/10/27 09:31:42;;;;;;;9.57;6.93;;;14.50;99.90;;;;;;5073267;28;20081;-66
2022/10/27 09:34:22;;;;;;;16.05;8.07;;;14.80;99.90;;;;;;5073192;28;20040;-65
2022/10/27 09:36:48;;;;;;;13.48;7.38;;;14.60;99.90;;;;;;5073249;28;20029;-66
2022/10/27 09:39:14;;;;;;;11.30;6.63;;;14.80;99.90;;;;;;5072941;28;20052;-67
2022/10/27 09:41:39;;;;;;;11.80;6.65;;;15.20;99.90;;;;;;5073517;28;20485;-66
2022/10/27 09:44:20;;;;;;;11.57;7.65;;;15.70;99.90;;;;;;5073092;28;20028;-67
2022/10/27 09:46:54;;;;;;;10.32;8.02;;;15.60;99.90;;;;;;5073111;28;20531;-66
2022/10/27 09:49:42;;;;;;;13.60;7.88;;;15.30;99.90;;;;;;5074114;28;20127;-66
2022/10/27 09:52:11;;;;;;;10.82;7.30;;;15.30;99.90;;;;;;5071473;28;20489;-66
2022/10/27 09:54:41;;;;;;;13.48;7.28;;;15.80;99.90;;;;;;5073214;28;20496;-65
2022/10/27 09:57:14;;;;;;;11.48;7.40;;;16.30;99.90;;;;;;5073202;28;20052;-66
2022/10/27 09:59:40;;;;;;;13.85;7.15;;;16.50;99.90;;;;;;5072478;28;20154;-66
2022/10/27 10:02:32;;;;;;;14.23;7.47;;;16.60;99.90;;;;;;5073036;28;20024;-66
2022/10/27 10:04:59;;;;;;;14.63;7.68;;;16.00;99.90;;;;;;5081838;28;20437;-66
2022/10/27 10:07:36;;;;;;;11.50;7.32;;;16.80;99.90;;;;;;5083790;28;20112;-67
2022/10/27 10:10:19;;;;;;;9.43;6.85;;;18.20;99.90;;;;;;5077303;28;20028;-66
2022/10/27 10:12:45;;;;;;;12.55;6.88;;;20.70;99.90;;;;;;5077529;28;20032;-66
2022/10/27 10:15:10;;;;;;;12.40;6.60;;;22.20;99.90;;;;;;5077119;28;20033;-66
2022/10/27 10:17:39;;;;;;;12.75;6.47;;;22.80;99.90;;;;;;5087588;28;20027;-66
2022/10/27 10:20:06;;;;;;;13.05;6.50;;;23.10;99.90;;;;;;5082447;28;20029;-66
2022/10/27 10:22:34;;;;;;;9.52;6.20;;;24.70;99.90;;;;;;5083423;28;20082;-66
2022/10/27 10:25:27;;;;;;;13.35;6.47;;;23.20;99.90;;;;;;5097135;28;20032;-66
2022/10/27 10:28:02;;;;;;;10.18;6.10;;;24.00;99.90;;;;;;5093159;28;20043;-66
2022/10/27 10:30:33;;;;;;;15.53;5.40;;;24.70;99.90;;;;;;5097098;28;20016;-66
2022/10/27 10:32:59;;;;;;;9.57;5.55;;;26.90;98.80;;;;;;5096897;28;20426;-66
2022/10/27 10:35:49;;;;;;;7.57;5.63;;;27.30;97.00;;;;;;5096668;28;20118;-66
2022/10/27 10:38:33;;;;;;;7.93;5.40;;;26.30;97.80;;;;;;5097430;28;20426;-66
2022/10/27 10:41:03;;;;;;;7.63;5.45;;;27.30;96.90;;;;;;5095797;28;20389;-66
2022/10/27 10:43:29;;;;;;;6.00;4.93;;;28.30;95.40;;;;;;5095419;28;20024;-66
2022/10/27 10:45:56;;;;;;;7.15;4.68;;;28.90;94.00;;;;;;5096644;28;20465;-67
2022/10/27 10:48:45;;;;;;;9.75;5.07;;;28.70;93.40;;;;;;5096381;28;20487;-66
2022/10/27 10:51:12;;;;;;;12.90;5.93;;;26.60;94.20;;;;;;5097844;28;20028;-65
2022/10/27 10:53:48;;;;;;;11.55;5.68;;;24.90;96.20;;;;;;5097441;28;20089;-66
2022/10/27 10:56:27;;;;;;;13.40;6.38;;;23.00;99.10;;;;;;5103888;28;20434;-66
2022/10/27 10:59:16;;;;;;;14.10;7.00;;;20.20;99.90;;;;;;5096285;28;20075;-65
2022/10/27 11:01:52;;;;;;;13.30;5.82;;;19.90;99.90;;;;;;5096053;28;20119;-66
2022/10/27 11:04:21;;;;;;;11.50;5.43;;;19.30;99.90;;;;;;5096183;28;20028;-66
2022/10/27 11:07:24;;;;;;;9.80;5.55;;;18.70;99.90;;;;;;5095995;28;20456;-66
2022/10/27 11:09:56;;;;;;;9.82;5.43;;;18.50;99.90;;;;;;5094489;28;20135;-66
2022/10/27 11:12:27;;;;;;;11.27;5.60;;;18.20;99.90;;;;;;5097305;28;20024;-66
2022/10/27 11:14:54;;;;;;;8.30;5.53;;;18.10;99.90;;;;;;5095554;28;20020;-65
2022/10/27 11:17:22;;;;;;;10.80;5.55;;;18.10;99.90;;;;;;5095272;28;20169;-66
2022/10/27 11:19:50;;;;;;;12.10;6.20;;;18.10;99.90;;;;;;5095741;28;20389;-67
2022/10/27 11:22:18;;;;;;;13.25;5.68;;;17.90;99.90;;;;;;5094288;28;20016;-67
2022/10/27 11:24:51;;;;;;;11.35;5.55;;;17.80;99.90;;;;;;5096034;28;20091;-66
2022/10/27 11:27:38;;;;;;;13.88;6.30;;;17.60;99.90;;;;;;5096456;28;20299;-66
2022/10/27 11:30:10;;;;;;;15.63;6.65;;;17.70;99.90;;;;;;5095712;28;20020;-66
2022/10/27 11:32:54;;;;;;;10.07;5.45;;;17.90;99.90;;;;;;5095484;28;20035;-66
2022/10/27 11:35:40;;;;;;;12.20;5.57;;;18.10;99.90;;;;;;5095432;28;20079;-66
2022/10/27 11:38:30;;;;;;;15.05;5.35;;;18.20;99.90;;;;;;5095807;28;20431;-66
2022/10/27 11:40:58;;;;;;;10.95;4.63;;;18.30;99.90;;;;;;5095664;28;20040;-65
2022/10/27 11:43:36;;;;;;;12.18;4.47;;;18.30;99.90;;;;;;5095395;28;20456;-65
2022/10/27 11:46:19;;;;;;;8.32;5.20;;;18.30;99.90;;;;;;5095995;28;20449;-66
2022/10/27 11:48:57;;;;;;;12.07;4.85;;;18.30;99.90;;;;;;5096109;28;20036;-66
2022/10/27 11:52:02;;;;;;;14.65;6.03;;;18.40;99.90;;;;;;5093475;28;20031;-65
2022/10/27 11:54:28;;;;;;;12.88;5.45;;;18.60;99.90;;;;;;5095765;28;20059;-66
2022/10/27 11:57:09;;;;;;;8.88;4.63;;;18.60;99.90;;;;;;5095232;28;20028;-66
2022/10/27 11:59:40;;;;;;;12.20;4.30;;;18.70;99.90;;;;;;5095474;28;20028;-66
2022/10/27 12:02:24;;;;;;;8.55;4.13;;;18.70;99.90;;;;;;5094863;28;20055;-66
2022/10/27 12:05:18;;;;;;;15.57;4.05;;;18.80;99.90;;;;;;5095135;28;20032;-66
2022/10/27 12:07:55;;;;;;;7.95;3.40;;;18.90;99.90;;;;;;5095636;28;20031;-65
2022/10/27 12:10:29;;;;;;;7.53;2.75;;;19.00;99.90;;;;;;5094885;28;20524;-65
2022/10/27 12:13:04;;;;;;;8.57;3.53;;;19.00;99.90;;;;;;5087231;28;20477;-66
2022/10/27 12:15:52;;;;;;;10.65;4.22;;;19.00;99.90;;;;;;5074880;28;20485;-65
2022/10/27 12:18:41;;;;;;;9.48;3.60;;;19.10;99.90;;;;;;5087884;28;20032;-66
2022/10/27 12:21:19;;;;;;;8.05;3.60;;;19.30;99.90;;;;;;5093921;28;20044;-67
2022/10/27 12:23:53;;;;;;;10.52;3.45;;;19.30;99.90;;;;;;5094574;28;20020;-66
2022/10/27 12:26:36;;;;;;;6.82;3.00;;;19.50;99.90;;;;;;5094685;28;20023;-65
2022/10/27 12:29:03;;;;;;;9.88;3.25;;;19.50;99.90;;;;;;5095173;28;20115;-67
2022/10/27 12:31:31;;;;;;;7.53;3.65;;;19.50;99.90;;;;;;5094964;28;20461;-66
2022/10/27 12:34:00;;;;;;;7.45;2.97;;;19.70;99.90;;;;;;5094399;28;20074;-66
2022/10/27 12:36:59;;;;;;;5.60;3.38;;;19.80;99.90;;;;;;5094312;28;20110;-64
2022/10/27 12:39:36;;;;;;;10.75;2.95;;;19.80;99.90;;;;;;5052308;28;20033;-65
2022/10/27 12:42:01;;;;;;;;;;;19.80;99.90;;;;;;5051491;28;20033;-66
2022/10/27 12:44:48;;;;;;;7.47;3.35;;;19.80;99.90;;;;;;5052050;28;19911;-66
2022/10/27 12:47:31;;;;;;;5.10;2.92;;;19.90;99.90;;;;;;5051549;28;20479;-65
2022/10/27 12:50:33;;;;;;;10.43;3.60;;;20.00;99.90;;;;;;5052034;28;20148;-65
2022/10/27 12:53:13;;;;;;;8.48;3.30;;;20.00;99.90;;;;;;5051799;28;20029;-67
2022/10/27 12:55:39;;;;;;;9.20;3.55;;;20.10;99.90;;;;;;5051741;28;20041;-67
2022/10/27 12:58:10;;;;;;;7.95;3.13;;;20.20;99.90;;;;;;5051954;28;20029;-66